Time;durP1;ratioP1;P1;durP2;ratioP2;P2;SDS_P1;SDS_P2;PMS_P1;PMS_P2;Temp;Humidity;BMP_temperature;BMP_pressure;BME280_temperature;BME280_humidity;BME280_pressure;Samples;Min_cycle;Max_cycle;Signal;HPM_P1;HPM_P2
2022/12/11 00:02:13;;;;;;;32.88;19.50;;;;;;;4.17;60.17;99788.50;5144190;27;20047;-60
2022/12/11 00:04:43;;;;;;;33.47;19.95;;;;;;;4.22;60.09;99791.22;5137075;27;20479;-61
2022/12/11 00:07:12;;;;;;;34.35;19.92;;;;;;;4.14;61.29;99785.50;5135165;27;20047;-59
2022/12/11 00:09:41;;;;;;;30.10;17.33;;;;;;;4.26;60.13;99791.44;5156662;27;20498;-61
2022/12/11 00:12:08;;;;;;;26.33;16.63;;;;;;;4.23;60.09;99786.53;5152367;27;20047;-61
2022/12/11 00:14:35;;;;;;;28.75;17.00;;;;;;;4.22;61.08;99787.63;5154362;27;20483;-61
2022/12/11 00:17:03;;;;;;;29.85;17.30;;;;;;;4.27;61.07;99791.16;5145250;27;20050;-61
2022/12/11 00:19:30;;;;;;;29.45;17.65;;;;;;;4.24;61.06;99786.25;5152432;27;20406;-61
2022/12/11 00:21:57;;;;;;;32.17;17.25;;;;;;;4.23;60.96;99783.75;5151699;27;20050;-61
2022/12/11 00:24:26;;;;;;;32.75;18.40;;;;;;;4.25;61.14;99787.06;5152441;27;20050;-61
2022/12/11 00:26:53;;;;;;;28.40;16.02;;;;;;;4.13;61.48;99790.19;5146327;27;20509;-61
2022/12/11 00:29:21;;;;;;;32.88;18.02;;;;;;;4.05;61.62;99785.28;5153084;27;20050;-61
2022/12/11 00:31:48;;;;;;;32.53;18.67;;;;;;;4.03;60.44;99785.59;5140447;27;20055;-61
2022/12/11 00:34:17;;;;;;;33.83;21.33;;;;;;;4.09;60.77;99788.28;5143708;27;20047;-62
2022/12/11 00:36:44;;;;;;;33.85;18.70;;;;;;;3.97;60.84;99786.75;5149344;27;20058;-60
2022/12/11 00:39:14;;;;;;;33.42;19.40;;;;;;;3.92;61.38;99789.50;5150421;27;20047;-61
2022/12/11 00:41:43;;;;;;;33.53;18.90;;;;;;;4.00;61.04;99780.63;5138937;27;20055;-61
2022/12/11 00:44:11;;;;;;;34.75;19.33;;;;;;;4.04;61.41;99794.66;5138160;27;20039;-61
2022/12/11 00:46:38;;;;;;;34.20;19.48;;;;;;;4.03;61.48;99791.09;5155538;27;20043;-61
2022/12/11 00:49:05;;;;;;;40.53;20.88;;;;;;;4.00;61.52;99786.16;5155754;27;20058;-61
2022/12/11 00:51:32;;;;;;;34.38;19.48;;;;;;;3.95;61.30;99794.47;5155618;27;20057;-61
2022/12/11 00:54:00;;;;;;;38.63;20.33;;;;;;;3.83;62.26;99794.00;5155019;27;20077;-60
2022/12/11 00:56:27;;;;;;;34.38;18.65;;;;;;;3.78;62.58;99788.50;5159989;27;20058;-61
2022/12/11 00:58:56;;;;;;;31.83;18.02;;;;;;;3.83;62.37;99796.75;5176552;27;20046;-60
2022/12/11 01:01:25;;;;;;;33.60;18.67;;;;;;;3.65;62.79;99789.97;5176022;27;20061;-60
2022/12/11 01:03:53;;;;;;;33.17;18.95;;;;;;;3.58;62.22;99790.28;5158465;27;20050;-60
2022/12/11 01:06:24;;;;;;;35.95;19.60;;;;;;;3.55;63.29;99795.53;5155345;27;20055;-60
2022/12/11 01:10:22;;;;;;;34.92;19.25;;;;;;;3.63;62.70;99792.19;5155680;27;20051;-61
2022/12/11 01:11:40;;;;;;;36.40;19.87;;;;;;;3.69;63.33;99796.56;5155207;27;20058;-61
2022/12/11 01:14:10;;;;;;;36.75;21.80;;;;;;;3.71;63.37;99788.03;5154811;27;20050;-61
2022/12/11 01:16:37;;;;;;;38.03;20.77;;;;;;;3.82;62.37;99784.94;5154505;27;20055;-61
2022/12/11 01:19:04;;;;;;;33.53;19.25;;;;;;;3.85;62.51;99786.28;5153129;27;20058;-61
2022/12/11 01:21:32;;;;;;;34.15;18.63;;;;;;;3.89;63.56;99792.03;5154152;27;20054;-61
2022/12/11 01:23:59;;;;;;;34.63;19.65;;;;;;;3.92;62.24;99794.22;5133632;27;20047;-61
2022/12/11 01:26:26;;;;;;;32.13;18.17;;;;;;;3.89;62.17;99790.09;5145331;27;20509;-61
2022/12/11 01:28:53;;;;;;;31.55;18.15;;;;;;;3.96;63.03;99793.34;5137407;27;20066;-61
2022/12/11 01:31:22;;;;;;;39.38;20.48;;;;;;;4.00;61.83;99793.59;5150588;27;20391;-60
2022/12/11 01:33:49;;;;;;;35.08;18.65;;;;;;;3.95;62.48;99794.47;5141328;27;20051;-60
2022/12/11 01:36:19;;;;;;;35.63;19.90;;;;;;;3.91;62.89;99793.41;5154535;27;20054;-61
2022/12/11 01:38:48;;;;;;;35.30;19.67;;;;;;;3.93;62.99;99793.94;5149493;27;20050;-62
2022/12/11 01:41:16;;;;;;;34.40;18.58;;;;;;;3.91;62.58;99790.63;5149741;27;20047;-61
2022/12/11 01:44:04;;;;;;;34.80;17.95;;;;;;;3.88;63.17;99791.19;5153747;27;20479;-61
2022/12/11 01:46:35;;;;;;;37.85;19.65;;;;;;;3.87;63.60;99786.81;5142781;27;20051;-61
2022/12/11 01:49:09;;;;;;;34.65;19.65;;;;;;;3.90;63.47;99785.41;5144674;27;20054;-61
2022/12/11 01:51:41;;;;;;;38.42;21.40;;;;;;;4.00;63.61;99796.34;5154344;27;20114;-60
2022/12/11 01:54:12;;;;;;;39.22;20.88;;;;;;;3.92;62.98;99789.50;5151222;27;20047;-61
2022/12/11 01:56:44;;;;;;;35.95;20.27;;;;;;;3.89;63.03;99795.63;5142611;27;20050;-61
2022/12/11 01:59:15;;;;;;;38.20;18.85;;;;;;;3.87;63.79;99792.31;5137292;27;20054;-61
2022/12/11 02:01:49;;;;;;;35.80;19.10;;;;;;;3.81;62.54;99796.22;5150414;27;20051;-60
2022/12/11 02:04:17;;;;;;;35.53;18.42;;;;;;;3.78;62.67;99796.78;5152857;27;20043;-60
2022/12/11 02:06:46;;;;;;;35.47;18.33;;;;;;;3.69;63.12;99798.50;5153331;27;20062;-61
2022/12/11 02:09:16;;;;;;;33.58;18.05;;;;;;;3.72;62.42;99795.19;5133670;27;20467;-61
2022/12/11 02:11:52;;;;;;;32.40;17.35;;;;;;;3.79;62.97;99793.75;5138098;27;20483;-61
2022/12/11 02:14:28;;;;;;;35.85;18.08;;;;;;;3.77;62.45;99792.38;5133465;27;20043;-60
2022/12/11 02:17:04;;;;;;;30.73;16.90;;;;;;;3.83;63.12;99781.03;5133641;27;20051;-60
2022/12/11 02:19:48;;;;;;;31.92;16.63;;;;;;;3.66;63.02;99786.94;5150189;27;20062;-61
2022/12/11 02:22:27;;;;;;;30.20;16.30;;;;;;;3.72;62.58;99781.41;5151797;27;20497;-61
2022/12/11 02:25:05;;;;;;;32.42;16.45;;;;;;;3.65;62.91;99785.31;5151421;27;20050;-60
2022/12/11 02:27:40;;;;;;;31.67;16.08;;;;;;;3.78;62.63;99783.00;5152894;27;20077;-61
2022/12/11 02:30:12;;;;;;;30.85;17.13;;;;;;;3.85;62.78;99772.50;5152863;27;20053;-60
2022/12/11 02:32:45;;;;;;;29.30;16.67;;;;;;;3.83;62.63;99775.53;5152954;27;20051;-61
2022/12/11 02:35:17;;;;;;;29.35;15.55;;;;;;;3.88;62.34;99776.59;5138452;27;20052;-61
2022/12/11 02:37:46;;;;;;;25.75;14.13;;;;;;;3.84;62.66;99774.44;5133238;27;20047;-61
2022/12/11 02:40:19;;;;;;;28.58;15.32;;;;;;;3.74;63.02;99770.91;5135759;27;20155;-60
2022/12/11 02:42:52;;;;;;;27.17;15.13;;;;;;;3.84;62.54;99771.69;5136134;27;20051;-61
2022/12/11 02:45:24;;;;;;;27.63;14.15;;;;;;;3.84;63.02;99770.84;5134798;27;20043;-61
2022/12/11 02:47:52;;;;;;;25.80;14.27;;;;;;;3.84;62.94;99776.34;5134149;27;20062;-61
2022/12/11 02:50:23;;;;;;;28.25;14.63;;;;;;;3.85;62.55;99778.81;5148626;27;20058;-61
2022/12/11 02:52:54;;;;;;;26.25;14.25;;;;;;;3.88;62.20;99780.19;5144565;27;20073;-61
2022/12/11 02:55:23;;;;;;;26.85;13.15;;;;;;;3.85;62.57;99778.00;5151653;27;20050;-61
2022/12/11 02:57:57;;;;;;;26.00;13.20;;;;;;;3.71;62.02;99777.81;5151322;27;20513;-60
2022/12/11 03:00:25;;;;;;;25.17;13.25;;;;;;;3.79;62.53;99773.66;5152170;27;20416;-61
2022/12/11 03:02:53;;;;;;;25.63;14.52;;;;;;;3.78;62.33;99771.97;5151334;27;20055;-61
2022/12/11 03:05:20;;;;;;;29.20;15.32;;;;;;;3.78;62.57;99760.97;5138731;27;20047;-61
2022/12/11 03:07:48;;;;;;;29.45;15.77;;;;;;;3.81;61.62;99758.47;5141165;27;20414;-60
2022/12/11 03:10:17;;;;;;;27.40;14.75;;;;;;;3.83;62.07;99759.00;5150354;27;20051;-61
2022/12/11 03:12:48;;;;;;;33.83;17.40;;;;;;;3.84;61.80;99757.91;5152111;27;20042;-61
2022/12/11 03:15:18;;;;;;;32.08;16.10;;;;;;;3.91;62.47;99754.81;5144696;27;20054;-62
2022/12/11 03:17:58;;;;;;;35.15;17.27;;;;;;;3.94;61.87;99757.00;5135607;27;20402;-62
2022/12/11 03:20:37;;;;;;;31.30;16.73;;;;;;;3.95;62.58;99755.03;5153340;27;20061;-62
2022/12/11 03:23:13;;;;;;;27.50;14.82;;;;;;;3.92;61.84;99755.63;5146121;27;20039;-62
2022/12/11 03:25:46;;;;;;;32.13;15.93;;;;;;;3.95;62.25;99750.38;5141191;27;20043;-62
2022/12/11 03:28:19;;;;;;;35.63;16.73;;;;;;;3.94;63.00;99757.00;5152477;27;20050;-62
2022/12/11 03:30:49;;;;;;;36.47;17.55;;;;;;;3.96;61.95;99751.19;5153135;27;20055;-62
2022/12/11 03:33:24;;;;;;;35.67;19.25;;;;;;;3.94;62.65;99745.97;5151607;27;20043;-63
2022/12/11 03:35:55;;;;;;;33.67;18.10;;;;;;;3.92;61.99;99752.88;5152093;27;20061;-62
2022/12/11 03:38:28;;;;;;;36.75;17.70;;;;;;;3.97;63.23;99747.31;5144966;27;20043;-62
2022/12/11 03:41:00;;;;;;;33.25;17.60;;;;;;;3.95;62.67;99750.38;5149279;27;20274;-62
2022/12/11 03:43:30;;;;;;;35.65;18.42;;;;;;;4.00;62.66;99752.28;5139520;27;20043;-61
2022/12/11 03:45:59;;;;;;;39.40;19.25;;;;;;;4.03;62.51;99754.44;5143073;27;20055;-61
2022/12/11 03:48:35;;;;;;;38.10;19.15;;;;;;;4.09;63.29;99756.03;5155856;27;20047;-61
2022/12/11 03:51:05;;;;;;;34.00;17.75;;;;;;;4.13;62.81;99742.50;5153353;27;20051;-61
2022/12/11 03:53:34;;;;;;;36.85;17.77;;;;;;;4.10;62.93;99751.38;5151313;27;20526;-61
2022/12/11 03:56:02;;;;;;;33.08;17.60;;;;;;;3.99;62.68;99747.84;5139424;27;20051;-62
2022/12/11 03:58:31;;;;;;;38.75;19.13;;;;;;;3.79;63.56;99749.66;5141031;27;20057;-61
2022/12/11 04:00:58;;;;;;;35.25;18.05;;;;;;;3.85;63.95;99742.19;5149003;27;20055;-62
2022/12/11 04:03:25;;;;;;;35.33;17.77;;;;;;;3.96;62.71;99740.19;5146227;27;20046;-61
2022/12/11 04:05:56;;;;;;;37.95;20.40;;;;;;;4.07;63.32;99748.06;5156400;27;20046;-61
2022/12/11 04:08:23;;;;;;;35.10;19.00;;;;;;;4.09;62.67;99746.94;5140698;27;20047;-61
2022/12/11 04:11:33;;;;;;;37.35;20.17;;;;;;;3.71;63.13;99741.19;5151496;27;20406;-61
2022/12/11 04:13:40;;;;;;;38.13;18.73;;;;;;;3.90;63.55;99752.34;5144940;27;20062;-61
2022/12/11 04:16:07;;;;;;;39.80;20.27;;;;;;;3.80;63.72;99747.72;5144265;27;20043;-61
2022/12/11 04:24:17;;;;;;;43.00;21.05;;;;;;;3.99;63.33;99756.97;5143391;27;20065;-61
2022/12/11 04:26:46;;;;;;;44.38;19.58;;;;;;;4.01;64.17;99749.22;5141521;27;20042;-61
2022/12/11 04:29:14;;;;;;;39.30;20.13;;;;;;;4.09;63.99;99752.47;5155150;27;20483;-61
2022/12/11 04:31:41;;;;;;;45.25;21.98;;;;;;;4.12;63.76;99749.97;5154740;27;20427;-61
2022/12/11 04:34:09;;;;;;;38.63;20.08;;;;;;;4.14;64.04;99756.00;5155360;27;20051;-61
2022/12/11 04:36:38;;;;;;;36.00;19.25;;;;;;;4.22;63.14;99749.03;5136842;27;20384;-61
2022/12/11 04:39:06;;;;;;;43.40;20.70;;;;;;;4.25;62.71;99753.97;5148335;27;20055;-61
2022/12/11 04:41:33;;;;;;;46.42;21.50;;;;;;;4.25;62.93;99748.47;5138367;27;20047;-61
2022/12/11 04:44:01;;;;;;;43.30;21.58;;;;;;;4.25;63.05;99753.97;5154922;27;20050;-61
2022/12/11 04:46:32;;;;;;;42.33;22.80;;;;;;;4.26;63.59;99753.69;5154175;27;20042;-61
2022/12/11 04:48:59;;;;;;;46.05;20.60;;;;;;;4.36;62.73;99749.19;5151130;27;20483;-61
2022/12/11 04:51:28;;;;;;;43.53;21.83;;;;;;;4.37;62.53;99739.81;5148580;27;20046;-61
2022/12/11 04:53:58;;;;;;;44.78;21.92;;;;;;;4.33;63.22;99736.00;5150093;27;20051;-62
2022/12/11 04:56:25;;;;;;;;;;;;;;;4.34;62.54;99738.44;5151763;27;20069;-61
2022/12/11 04:58:52;;;;;;;39.95;20.80;;;;;;;4.36;63.01;99743.66;5141399;27;20287;-60
2022/12/11 05:01:22;;;;;;;45.92;22.00;;;;;;;4.37;62.75;99737.88;5144399;27;20467;-60
2022/12/11 05:03:49;;;;;;;;;;;;;;;4.29;62.55;99745.97;5152666;27;20053;-60
2022/12/11 05:06:16;;;;;;;43.88;21.83;;;;;;;4.34;63.32;99738.44;5154650;27;20362;-61
2022/12/11 05:08:45;;;;;;;43.47;22.08;;;;;;;4.33;62.41;99741.50;5145303;27;20051;-61
2022/12/11 05:11:15;;;;;;;45.97;23.27;;;;;;;4.35;63.51;99737.34;5135037;27;20074;-61
2022/12/11 05:13:43;;;;;;;47.05;22.20;;;;;;;4.34;63.13;99741.19;5139566;27;20047;-61
2022/12/11 05:16:12;;;;;;;46.35;23.95;;;;;;;4.32;63.03;99743.41;5142071;27;20046;-62
2022/12/11 05:18:40;;;;;;;40.72;21.05;;;;;;;4.39;63.69;99743.91;5147251;27;20062;-60
2022/12/11 05:21:12;;;;;;;42.25;23.25;;;;;;;4.40;62.99;99739.22;5144374;27;20054;-61
2022/12/11 05:23:42;;;;;;;44.50;21.83;;;;;;;4.46;62.67;99741.63;5153712;27;20047;-60
2022/12/11 05:26:15;;;;;;;43.45;23.02;;;;;;;4.46;63.33;99741.63;5152679;27;20046;-61
2022/12/11 05:28:43;;;;;;;43.17;21.63;;;;;;;4.45;63.21;99742.75;5153990;27;20469;-60
2022/12/11 05:31:13;;;;;;;39.85;21.15;;;;;;;4.46;63.51;99743.56;5139021;27;20059;-61
2022/12/11 05:33:40;;;;;;;;;;;;;;;4.40;62.91;99736.47;5133714;27;20062;-61
2022/12/11 05:36:08;;;;;;;44.83;20.65;;;;;;;4.46;63.14;99740.81;5138604;27;19926;-60
2022/12/11 05:38:35;;;;;;;39.22;21.20;;;;;;;4.46;62.57;99736.09;5153752;27;20043;-61
2022/12/11 05:41:05;;;;;;;39.20;19.70;;;;;;;4.48;63.23;99733.88;5155033;27;20406;-61
2022/12/11 05:43:35;;;;;;;39.08;18.98;;;;;;;4.50;63.27;99732.78;5151936;27;20050;-61
2022/12/11 05:46:07;;;;;;;38.63;19.33;;;;;;;4.51;63.33;99737.16;5144942;27;20490;-60
2022/12/11 05:48:35;;;;;;;39.65;19.67;;;;;;;4.50;62.92;99727.28;5143759;27;20058;-61
2022/12/11 05:51:04;;;;;;;44.40;21.58;;;;;;;4.48;63.55;99725.63;5144494;27;20062;-61
2022/12/11 05:53:32;;;;;;;40.92;19.80;;;;;;;4.47;63.02;99734.16;5145404;27;20061;-61
2022/12/11 05:56:02;;;;;;;40.45;20.75;;;;;;;4.46;63.20;99733.34;5154353;27;20057;-61
2022/12/11 05:58:29;;;;;;;43.70;21.83;;;;;;;4.54;62.53;99722.81;5151494;27;20038;-61
2022/12/11 06:00:58;;;;;;;40.63;20.10;;;;;;;4.51;63.72;99734.41;5152855;27;20475;-60
2022/12/11 06:03:26;;;;;;;37.67;19.27;;;;;;;4.50;63.03;99727.28;5150089;27;20487;-61
2022/12/11 06:05:53;;;;;;;39.45;18.55;;;;;;;4.55;63.27;99729.97;5153326;27;20057;-61
2022/12/11 06:08:20;;;;;;;40.65;20.00;;;;;;;4.54;62.77;99734.66;5153734;27;20379;-61
2022/12/11 06:10:48;;;;;;;39.13;18.52;;;;;;;4.50;63.07;99728.09;5153423;27;20057;-60
2022/12/11 06:13:16;;;;;;;39.17;19.02;;;;;;;4.57;62.63;99733.25;5149491;27;20047;-61
2022/12/11 06:15:43;;;;;;;39.40;19.30;;;;;;;4.53;62.51;99734.94;5145667;27;20380;-61
2022/12/11 06:18:12;;;;;;;35.17;19.35;;;;;;;4.57;62.65;99727.72;5149556;27;20051;-60
2022/12/11 06:20:39;;;;;;;37.75;19.00;;;;;;;4.66;62.23;99728.72;5132407;27;20047;-61
2022/12/11 06:23:06;;;;;;;34.58;18.13;;;;;;;4.42;62.26;99721.25;5148738;27;20054;-61
2022/12/11 06:25:35;;;;;;;39.80;18.92;;;;;;;4.42;62.75;99704.72;5151261;27;20046;-61
2022/12/11 06:28:03;;;;;;;36.28;19.60;;;;;;;4.45;63.01;99704.16;5152981;27;20093;-61
2022/12/11 06:30:33;;;;;;;39.97;19.55;;;;;;;4.47;62.43;99712.09;5149524;27;20043;-61
2022/12/11 06:33:00;;;;;;;37.20;19.67;;;;;;;4.47;63.26;99706.59;5148458;27;20063;-61
2022/12/11 06:35:29;;;;;;;37.35;19.98;;;;;;;4.48;62.80;99711.00;5151218;27;20163;-60
2022/12/11 06:37:57;;;;;;;39.88;20.35;;;;;;;4.53;62.59;99715.63;5153103;27;20046;-61
2022/12/11 06:40:24;;;;;;;40.60;20.83;;;;;;;4.49;63.11;99709.88;5149923;27;20051;-61
2022/12/11 06:42:52;;;;;;;37.72;19.45;;;;;;;4.57;62.11;99716.69;5151321;27;20057;-61
2022/12/11 06:45:19;;;;;;;41.40;20.45;;;;;;;4.52;62.25;99720.34;5139722;27;20058;-61
2022/12/11 06:47:46;;;;;;;38.85;21.27;;;;;;;4.49;62.06;99723.66;5152616;27;20047;-61
2022/12/11 06:50:13;;;;;;;41.67;20.35;;;;;;;4.48;62.85;99720.09;5149544;27;20051;-61
2022/12/11 06:52:42;;;;;;;42.10;22.63;;;;;;;4.44;62.79;99723.72;5140204;27;20047;-61
2022/12/11 06:55:10;;;;;;;37.87;19.43;;;;;;;4.39;63.60;99721.84;5147123;27;20051;-61
2022/12/11 06:57:40;;;;;;;34.40;18.05;;;;;;;4.41;62.96;99724.31;5146747;27;20503;-61
2022/12/11 07:00:09;;;;;;;32.38;17.30;;;;;;;4.45;63.14;99720.69;5133395;27;20051;-60
2022/12/11 07:02:36;;;;;;;34.25;18.45;;;;;;;4.47;63.66;99729.50;5146669;27;20047;-61
2022/12/11 07:05:04;;;;;;;33.20;18.73;;;;;;;4.53;62.99;99723.91;5144022;27;20057;-61
2022/12/11 07:07:31;;;;;;;35.40;18.95;;;;;;;4.43;62.52;99722.06;5143537;27;20047;-60
2022/12/11 07:10:00;;;;;;;34.20;17.92;;;;;;;4.42;62.95;99725.97;5141761;27;20407;-60
2022/12/11 07:12:27;;;;;;;32.03;17.92;;;;;;;4.43;62.80;99728.44;5138102;27;20395;-61
2022/12/11 07:14:55;;;;;;;31.77;17.20;;;;;;;4.42;62.96;99725.97;5139426;27;20058;-60
2022/12/11 07:17:22;;;;;;;28.50;16.13;;;;;;;4.55;62.83;99729.97;5140543;27;20047;-60
2022/12/11 07:19:49;;;;;;;26.10;15.05;;;;;;;4.52;64.31;99730.56;5142028;27;20407;-60
2022/12/11 07:22:16;;;;;;;26.27;15.18;;;;;;;4.73;63.88;99729.19;5149102;27;20053;-61
2022/12/11 07:24:43;;;;;;;30.25;15.93;;;;;;;4.83;62.98;99736.50;5149939;27;20513;-60
2022/12/11 07:27:12;;;;;;;25.65;13.85;;;;;;;4.84;62.08;99730.72;5157531;27;20051;-60
2022/12/11 07:29:39;;;;;;;19.92;11.02;;;;;;;4.56;60.29;99726.09;5155468;27;20043;-60
2022/12/11 07:32:07;;;;;;;16.58;9.82;;;;;;;4.72;60.07;99723.97;5154780;27;20070;-60
2022/12/11 07:34:34;;;;;;;19.25;11.13;;;;;;;4.73;59.77;99725.63;5142433;27;20369;-61
2022/12/11 07:37:01;;;;;;;15.48;9.45;;;;;;;4.55;58.99;99732.72;5152448;27;20047;-61
2022/12/11 07:39:28;;;;;;;12.95;8.40;;;;;;;4.45;58.28;99726.22;5153903;27;20042;-61
2022/12/11 07:41:56;;;;;;;12.70;7.93;;;;;;;4.50;57.82;99716.25;5156577;27;20047;-61
2022/12/11 07:44:24;;;;;;;17.23;11.27;;;;;;;4.43;57.71;99722.91;5155909;27;20050;-60
2022/12/11 07:46:52;;;;;;;17.25;11.75;;;;;;;4.42;58.16;99717.69;5153676;27;20043;-61
2022/12/11 07:49:19;;;;;;;16.75;10.88;;;;;;;4.42;59.10;99721.25;5155240;27;20411;-61
2022/12/11 07:51:46;;;;;;;14.82;10.18;;;;;;;4.43;58.73;99728.44;5140588;27;20046;-61
2022/12/11 07:54:16;;;;;;;16.80;10.35;;;;;;;4.50;59.11;99730.03;5138644;27;20053;-61
2022/12/11 07:56:43;;;;;;;18.40;11.40;;;;;;;4.49;59.10;99723.66;5151754;27;20411;-61
2022/12/11 07:59:11;;;;;;;16.67;11.05;;;;;;;4.55;59.76;99730.78;5156723;27;20058;-61
2022/12/11 08:01:41;;;;;;;17.23;11.25;;;;;;;4.54;60.03;99731.09;5140388;27;20455;-61
2022/12/11 08:04:10;;;;;;;17.30;10.85;;;;;;;4.59;59.69;99731.84;5148472;27;20043;-61
2022/12/11 08:06:39;;;;;;;18.02;10.98;;;;;;;4.65;57.98;99729.84;5152250;27;20475;-60
2022/12/11 08:09:09;;;;;;;16.90;10.63;;;;;;;4.45;58.94;99734.47;5145409;27;20046;-61
2022/12/11 08:11:37;;;;;;;18.85;11.07;;;;;;;4.52;58.27;99736.06;5146848;27;20050;-61
2022/12/11 08:14:05;;;;;;;18.50;10.75;;;;;;;4.35;58.28;99733.75;5146477;27;20058;-61
2022/12/11 08:16:32;;;;;;;16.38;10.02;;;;;;;4.39;57.72;99735.66;5149233;27;20054;-61
2022/12/11 08:19:01;;;;;;;20.90;11.80;;;;;;;4.36;57.67;99733.44;5147116;27;20054;-61
2022/12/11 08:21:28;;;;;;;16.50;11.20;;;;;;;4.38;58.46;99742.25;5153778;27;20042;-61
2022/12/11 08:23:56;;;;;;;17.23;11.23;;;;;;;4.33;58.46;99739.56;5153580;27;20054;-61
2022/12/11 08:26:25;;;;;;;22.52;13.00;;;;;;;4.31;58.95;99733.53;5144174;27;20058;-61
2022/12/11 08:28:52;;;;;;;19.48;11.35;;;;;;;4.32;57.76;99732.41;5147713;27;20391;-62
2022/12/11 08:31:20;;;;;;;21.63;14.07;;;;;;;4.26;58.36;99736.31;5146379;27;20047;-62
2022/12/11 08:33:48;;;;;;;19.98;11.98;;;;;;;4.23;58.58;99728.63;5146046;27;20043;-61
2022/12/11 08:36:22;;;;;;;21.75;13.88;;;;;;;4.31;58.02;99730.75;5147938;27;20057;-62
2022/12/11 08:38:50;;;;;;;19.65;13.43;;;;;;;4.31;57.96;99733.53;5148063;27;20051;-61
2022/12/11 08:41:19;;;;;;;19.73;13.68;;;;;;;4.29;59.06;99734.94;5148121;27;20471;-61
2022/12/11 08:43:47;;;;;;;21.00;13.90;;;;;;;4.39;57.99;99740.31;5146758;27;20051;-61
2022/12/11 08:46:14;;;;;;;20.80;14.82;;;;;;;4.38;57.66;99736.75;5150064;27;20483;-62
2022/12/11 08:48:43;;;;;;;18.92;12.30;;;;;;;4.15;58.17;99743.03;5149209;27;20383;-61
2022/12/11 08:51:13;;;;;;;16.27;10.95;;;;;;;4.15;57.24;99737.53;5147384;27;20051;-61
2022/12/11 08:53:42;;;;;;;14.02;10.55;;;;;;;4.23;57.61;99736.91;5143071;27;20055;-61
2022/12/11 08:56:11;;;;;;;15.68;11.35;;;;;;;4.25;57.01;99729.16;5145648;27;20501;-61
2022/12/11 08:58:39;;;;;;;17.20;12.47;;;;;;;4.35;57.27;99726.31;5154430;27;20054;-61
2022/12/11 09:01:07;;;;;;;15.82;10.98;;;;;;;4.37;57.01;99734.31;5141866;27;20060;-61
2022/12/11 09:03:34;;;;;;;13.63;8.65;;;;;;;4.40;57.04;99731.75;5142959;27;20478;-62
2022/12/11 09:06:05;;;;;;;14.07;9.80;;;;;;;4.44;57.02;99727.31;5145663;27;20132;-61
2022/12/11 09:08:33;;;;;;;14.15;10.13;;;;;;;4.54;56.18;99726.38;5145142;27;20050;-61
2022/12/11 09:11:06;;;;;;;14.80;9.55;;;;;;;4.46;56.35;99736.09;5148712;27;20042;-61
2022/12/11 09:13:34;;;;;;;16.67;11.05;;;;;;;4.44;57.29;99732.00;5149251;27;20054;-61
2022/12/11 09:16:04;;;;;;;14.40;9.07;;;;;;;4.25;57.12;99727.22;5146918;27;20047;-61
2022/12/11 09:18:31;;;;;;;12.70;7.75;;;;;;;4.25;57.40;99729.97;5140465;27;20062;-61
2022/12/11 09:21:00;;;;;;;13.82;8.93;;;;;;;4.11;56.94;99740.03;5145904;27;20047;-61
2022/12/11 09:23:28;;;;;;;11.55;7.95;;;;;;;4.03;56.30;99740.66;5151666;27;20038;-62
2022/12/11 09:25:55;;;;;;;15.55;8.98;;;;;;;3.89;57.79;99737.75;5153151;27;20058;-61
2022/12/11 09:28:24;;;;;;;15.30;8.40;;;;;;;4.05;57.60;99738.44;5151174;27;20051;-61
2022/12/11 09:30:52;;;;;;;16.35;10.23;;;;;;;3.98;58.33;99744.28;5148748;27;20054;-60
2022/12/11 09:33:19;;;;;;;25.33;15.25;;;;;;;4.13;58.56;99745.25;5152403;27;20039;-61
2022/12/11 09:35:56;;;;;;;14.15;9.25;;;;;;;4.11;57.65;99741.97;5148596;27;20062;-61
2022/12/11 09:38:23;;;;;;;11.73;7.20;;;;;;;4.25;56.73;99738.25;5148287;27;20057;-61
2022/12/11 09:40:50;;;;;;;12.88;7.40;;;;;;;4.35;56.36;99731.81;5145418;27;20042;-61
2022/12/11 09:43:31;;;;;;;12.80;8.10;;;;;;;4.40;56.98;99730.94;5149423;27;20050;-61
2022/12/11 09:46:02;;;;;;;13.02;7.25;;;;;;;4.39;57.39;99727.38;5151309;27;20059;-61
2022/12/11 09:48:33;;;;;;;13.90;8.88;;;;;;;4.41;56.52;99729.81;5141437;27;20054;-61
2022/12/11 09:51:06;;;;;;;14.43;8.82;;;;;;;4.33;57.76;99731.28;5150171;27;20051;-61
2022/12/11 09:53:36;;;;;;;14.15;10.43;;;;;;;4.38;57.23;99733.16;5151007;27;20065;-59
2022/12/11 09:56:14;;;;;;;14.80;9.50;;;;;;;4.38;56.94;99733.97;5150531;27;20051;-60
2022/12/11 09:58:53;;;;;;;14.98;8.82;;;;;;;4.30;57.61;99731.84;5150680;27;20388;-60
2022/12/11 10:01:26;;;;;;;12.37;7.87;;;;;;;4.44;57.50;99723.72;5143134;27;20049;-61
2022/12/11 10:04:15;;;;;;;12.38;7.28;;;;;;;4.22;57.44;99719.56;5150226;27;20058;-61
2022/12/11 10:06:53;;;;;;;14.38;8.43;;;;;;;4.29;56.02;99716.44;5145227;27;20447;-61
2022/12/11 10:09:29;;;;;;;12.55;7.63;;;;;;;4.33;56.21;99717.50;5149636;27;20046;-60
2022/12/11 10:12:08;;;;;;;11.98;7.97;;;;;;;4.03;57.22;99719.47;5148239;27;20475;-61
2022/12/11 10:14:47;;;;;;;11.90;7.70;;;;;;;4.17;57.54;99713.25;5149626;27;20062;-61
2022/12/11 10:17:20;;;;;;;11.83;7.60;;;;;;;3.99;57.02;99715.63;5140796;27;20050;-61
2022/12/11 10:19:49;;;;;;;14.65;9.18;;;;;;;4.13;57.68;99709.44;5137105;27;20798;-61
2022/12/11 10:22:21;;;;;;;11.60;7.40;;;;;;;4.20;57.24;99705.25;5150599;27;20057;-61
2022/12/11 10:24:56;;;;;;;13.57;8.02;;;;;;;4.11;57.52;99704.22;5146266;27;20066;-61
2022/12/11 10:27:29;;;;;;;11.60;7.70;;;;;;;4.18;57.04;99701.09;5148569;27;20043;-61
2022/12/11 10:30:05;;;;;;;12.98;7.68;;;;;;;4.35;56.99;99703.44;5143285;27;20046;-60
2022/12/11 10:32:42;;;;;;;12.00;7.32;;;;;;;4.41;56.13;99694.81;5150168;27;20050;-61
2022/12/11 10:35:18;;;;;;;10.23;6.75;;;;;;;4.45;56.94;99704.16;5141714;27;20042;-61
2022/12/11 10:37:45;;;;;;;11.13;7.35;;;;;;;4.54;56.75;99698.81;5150491;27;20050;-60
2022/12/11 10:40:13;;;;;;;10.43;6.47;;;;;;;4.39;55.67;99694.28;5150070;27;20049;-61
2022/12/11 10:42:52;;;;;;;10.25;6.60;;;;;;;4.36;56.50;99697.63;5148638;27;20043;-61
2022/12/11 10:45:21;;;;;;;10.05;6.40;;;;;;;4.28;57.24;99698.25;5141960;27;20039;-61
2022/12/11 10:47:48;;;;;;;11.52;6.63;;;;;;;4.22;56.72;99693.91;5143691;27;20061;-61
2022/12/11 10:50:23;;;;;;;9.75;5.95;;;;;;;4.25;55.71;99693.34;5152496;27;20052;-61
2022/12/11 10:52:52;;;;;;;9.73;6.00;;;;;;;4.05;57.34;99697.94;5143700;27;20491;-61
2022/12/11 10:55:22;;;;;;;11.02;6.72;;;;;;;3.99;57.14;99704.59;5153439;27;20050;-60
2022/12/11 10:57:59;;;;;;;9.60;6.38;;;;;;;3.96;57.30;99696.09;5144300;27;20046;-60
2022/12/11 11:00:33;;;;;;;12.27;7.57;;;;;;;3.84;58.39;99690.94;5152954;27;20483;-60
2022/12/11 11:03:02;;;;;;;10.63;6.40;;;;;;;3.96;57.78;99685.88;5156727;27;20054;-60
2022/12/11 11:05:33;;;;;;;12.45;8.15;;;;;;;4.08;57.72;99688.25;5156524;27;20055;-60
2022/12/11 11:08:10;;;;;;;12.43;7.13;;;;;;;4.13;57.67;99681.88;5154078;27;20051;-61
2022/12/11 11:10:38;;;;;;;11.65;6.75;;;;;;;3.99;57.47;99687.22;5155201;27;20050;-60
2022/12/11 11:13:05;;;;;;;10.98;7.30;;;;;;;3.99;57.67;99677.06;5164311;27;20046;-60
2022/12/11 11:15:34;;;;;;;11.23;7.35;;;;;;;4.10;57.14;99680.53;5149010;27;20499;-61
2022/12/11 11:18:09;;;;;;;11.23;7.35;;;;;;;4.15;56.75;99680.47;5151583;27;20055;-61
2022/12/11 11:20:37;;;;;;;10.88;6.78;;;;;;;4.20;56.87;99685.09;5152689;27;20047;-61
2022/12/11 11:23:13;;;;;;;11.07;6.88;;;;;;;4.16;57.18;99682.13;5093306;27;20062;-61
2022/12/11 11:25:50;;;;;;;11.45;7.38;;;;;;;4.19;56.40;99684.28;5095731;28;20055;-61
2022/12/11 11:28:21;;;;;;;12.55;7.15;;;;;;;4.24;55.95;99683.41;5095310;28;20055;-62
2022/12/11 11:31:00;;;;;;;11.85;7.53;;;;;;;4.15;57.00;99671.38;5094401;28;20059;-61
2022/12/11 11:33:28;;;;;;;12.13;7.40;;;;;;;3.99;57.33;99676.22;5116170;28;20074;-61
2022/12/11 11:35:58;;;;;;;12.23;7.28;;;;;;;4.12;57.75;99678.31;5115729;28;20492;-61
2022/12/11 11:38:29;;;;;;;12.18;8.25;;;;;;;4.35;57.06;99668.41;5116053;28;20059;-61
2022/12/11 11:41:05;;;;;;;11.68;7.38;;;;;;;4.45;56.30;99665.53;5115586;28;20047;-61
2022/12/11 11:43:40;;;;;;;11.88;7.40;;;;;;;4.51;56.63;99663.53;5113085;28;20059;-61
2022/12/11 11:46:14;;;;;;;11.68;7.28;;;;;;;4.46;56.80;99672.69;5115489;28;20047;-61
2022/12/11 11:48:51;;;;;;;10.20;6.63;;;;;;;4.55;55.55;99663.78;5109276;28;20070;-60